UAE1212 OLBA-HEGN
Flight info
| Callsign | UAE1212 |
|---|---|
| Flight time | 1h 39m |
| Altitude | 35000 |
| Route | KAD DCT ELIKA N159 VELOX N71 LEDRA/N0443F370 N71 LAKTO N307 MELDO A16 CVO L315 SOKOT SOKOT1A |
| Aircraft | A20N/M-SDE2E3FGHIRWXY/LB1 |
Departure
| Time | 2026-05-06 14:29 |
|---|---|
| Airport | Beirut Rafic Hariri International Airport (OLBA) |
Arrival
| Time | 2026-05-06 16:09 |
|---|---|
| Airport | Hurghada International Airport (HEGN) |
| Time | Latitude | Longitude | Altitude | Speed | Heading |
|---|---|---|---|---|---|
| 2026-05-06 14:18 | 33.82261 | 35.49368 | 86 ft | 0 kts | 16° |
| 2026-05-06 14:22 | 33.82259 | 35.49368 | 86 ft | 1 kts | 16° |
| 2026-05-06 14:23 | 33.82253 | 35.49366 | 86 ft | 0 kts | 18° |
| 2026-05-06 14:23 | 33.82242 | 35.49361 | 83 ft | 10 kts | 20° |
| 2026-05-06 14:23 | 33.82213 | 35.49349 | 80 ft | 3 kts | 18° |
| 2026-05-06 14:24 | 33.82187 | 35.49327 | 77 ft | 5 kts | 71° |
| 2026-05-06 14:24 | 33.82185 | 35.49315 | 81 ft | 0 kts | 105° |
| 2026-05-06 14:26 | 33.82180 | 35.49336 | 77 ft | 12 kts | 106° |
| 2026-05-06 14:26 | 33.82131 | 35.49470 | 78 ft | 17 kts | 117° |
| 2026-05-06 14:26 | 33.82029 | 35.49474 | 82 ft | 17 kts | 212° |
| 2026-05-06 14:27 | 33.81923 | 35.49387 | 79 ft | 19 kts | 215° |
| 2026-05-06 14:27 | 33.81807 | 35.49288 | 78 ft | 21 kts | 215° |
| 2026-05-06 14:27 | 33.81684 | 35.49185 | 76 ft | 22 kts | 215° |
| 2026-05-06 14:27 | 33.81553 | 35.49072 | 79 ft | 24 kts | 215° |
| 2026-05-06 14:28 | 33.81418 | 35.48956 | 76 ft | 25 kts | 216° |
| 2026-05-06 14:28 | 33.81276 | 35.48837 | 78 ft | 24 kts | 213° |
| 2026-05-06 14:28 | 33.81204 | 35.48695 | 69 ft | 21 kts | 292° |
| 2026-05-06 14:28 | 33.81308 | 35.48638 | 74 ft | 17 kts | 349° |
| 2026-05-06 14:29 | 33.81452 | 35.48600 | 75 ft | 44 kts | 347° |
| 2026-05-06 14:29 | 33.82036 | 35.48437 | 67 ft | 126 kts | 346° |
| 2026-05-06 14:29 | 33.83109 | 35.48137 | 171 ft | 178 kts | 347° |
| 2026-05-06 14:29 | 33.84324 | 35.47820 | 980 ft | 184 kts | 347° |
| 2026-05-06 14:30 | 33.85604 | 35.47359 | 1710 ft | 204 kts | 337° |
| 2026-05-06 14:30 | 33.86966 | 35.46600 | 2260 ft | 226 kts | 334° |
| 2026-05-06 14:30 | 33.88447 | 35.45769 | 2859 ft | 247 kts | 334° |
| 2026-05-06 14:30 | 33.90061 | 35.44871 | 3550 ft | 262 kts | 334° |
| 2026-05-06 14:31 | 33.91746 | 35.44019 | 4490 ft | 267 kts | 337° |
| 2026-05-06 14:31 | 33.93484 | 35.43154 | 5434 ft | 273 kts | 337° |
| 2026-05-06 14:31 | 33.95275 | 35.42284 | 6348 ft | 279 kts | 338° |
| 2026-05-06 14:31 | 33.97116 | 35.41430 | 7266 ft | 282 kts | 338° |
| 2026-05-06 14:32 | 33.98886 | 35.40635 | 8226 ft | 283 kts | 338° |
| 2026-05-06 14:32 | 34.00726 | 35.39822 | 9192 ft | 285 kts | 338° |
| 2026-05-06 14:32 | 34.02563 | 35.38971 | 10122 ft | 287 kts | 330° |
| 2026-05-06 14:32 | 34.04161 | 35.37467 | 10640 ft | 299 kts | 307° |
| 2026-05-06 14:33 | 34.05144 | 35.35275 | 10956 ft | 317 kts | 285° |
| 2026-05-06 14:33 | 34.05323 | 35.32611 | 11510 ft | 326 kts | 262° |
| 2026-05-06 14:33 | 34.04636 | 35.29999 | 12416 ft | 327 kts | 247° |
| 2026-05-06 14:33 | 34.03645 | 35.27536 | 13320 ft | 329 kts | 245° |
| 2026-05-06 14:34 | 34.02666 | 35.25021 | 14131 ft | 331 kts | 248° |
| 2026-05-06 14:34 | 34.01784 | 35.22466 | 14873 ft | 333 kts | 250° |
| 2026-05-06 14:34 | 34.00960 | 35.19819 | 15619 ft | 336 kts | 252° |
| 2026-05-06 14:34 | 34.00181 | 35.17166 | 16354 ft | 338 kts | 252° |
| 2026-05-06 14:35 | 33.99439 | 35.14577 | 17054 ft | 341 kts | 253° |
| 2026-05-06 14:35 | 33.98673 | 35.11888 | 17776 ft | 343 kts | 253° |
| 2026-05-06 14:35 | 33.97891 | 35.09145 | 18463 ft | 346 kts | 253° |
| 2026-05-06 14:35 | 33.97105 | 35.06398 | 19083 ft | 348 kts | 253° |
| 2026-05-06 14:36 | 33.96319 | 35.03659 | 19727 ft | 350 kts | 253° |
| 2026-05-06 14:36 | 33.95525 | 35.00899 | 20368 ft | 351 kts | 253° |
| 2026-05-06 14:36 | 33.94713 | 34.98076 | 20992 ft | 354 kts | 253° |
| 2026-05-06 14:36 | 33.93907 | 34.95282 | 21609 ft | 356 kts | 253° |
| 2026-05-06 14:37 | 33.93102 | 34.92490 | 22196 ft | 358 kts | 253° |
| 2026-05-06 14:37 | 33.92404 | 34.90073 | 22719 ft | 360 kts | 253° |
| 2026-05-06 14:37 | 33.91582 | 34.87228 | 23298 ft | 363 kts | 253° |
| 2026-05-06 14:37 | 33.90754 | 34.84367 | 23835 ft | 365 kts | 253° |
| 2026-05-06 14:38 | 33.89911 | 34.81453 | 24334 ft | 367 kts | 253° |
| 2026-05-06 14:38 | 33.89070 | 34.78552 | 24829 ft | 369 kts | 253° |
| 2026-05-06 14:38 | 33.88229 | 34.75652 | 25292 ft | 371 kts | 253° |
| 2026-05-06 14:38 | 33.87371 | 34.72698 | 25766 ft | 373 kts | 253° |
| 2026-05-06 14:39 | 33.86542 | 34.69844 | 26203 ft | 375 kts | 253° |
| 2026-05-06 14:39 | 33.85674 | 34.66862 | 26657 ft | 377 kts | 253° |
| 2026-05-06 14:39 | 33.84814 | 34.63909 | 27095 ft | 379 kts | 253° |
| 2026-05-06 14:39 | 33.83976 | 34.60875 | 27530 ft | 380 kts | 257° |
| 2026-05-06 14:40 | 33.83392 | 34.57788 | 27927 ft | 380 kts | 262° |
| 2026-05-06 14:40 | 33.83077 | 34.54600 | 28328 ft | 381 kts | 267° |
| 2026-05-06 14:40 | 33.82982 | 34.51384 | 28709 ft | 383 kts | 269° |
| 2026-05-06 14:40 | 33.82898 | 34.48199 | 29080 ft | 385 kts | 269° |
| 2026-05-06 14:41 | 33.82804 | 34.44950 | 29442 ft | 387 kts | 269° |
| 2026-05-06 14:41 | 33.82707 | 34.41744 | 29786 ft | 390 kts | 269° |
| 2026-05-06 14:41 | 33.82608 | 34.38449 | 30142 ft | 392 kts | 269° |
| 2026-05-06 14:41 | 33.82509 | 34.35222 | 30424 ft | 394 kts | 268° |
| 2026-05-06 14:42 | 33.82407 | 34.31864 | 30696 ft | 397 kts | 268° |
| 2026-05-06 14:42 | 33.82305 | 34.28571 | 30989 ft | 399 kts | 268° |
| 2026-05-06 14:42 | 33.82202 | 34.25234 | 31302 ft | 400 kts | 268° |
| 2026-05-06 14:42 | 33.82098 | 34.21895 | 31671 ft | 400 kts | 268° |
| 2026-05-06 14:43 | 33.81998 | 34.18726 | 32027 ft | 400 kts | 268° |
| 2026-05-06 14:43 | 33.81891 | 34.15361 | 32397 ft | 399 kts | 268° |
| 2026-05-06 14:43 | 33.81654 | 34.12020 | 32757 ft | 400 kts | 262° |
| 2026-05-06 14:43 | 33.80998 | 34.08805 | 33103 ft | 402 kts | 254° |
| 2026-05-06 14:44 | 33.79904 | 34.05678 | 33441 ft | 405 kts | 246° |
| 2026-05-06 14:44 | 33.78421 | 34.02806 | 33776 ft | 409 kts | 239° |
| 2026-05-06 14:44 | 33.76776 | 34.00050 | 34099 ft | 408 kts | 239° |
| 2026-05-06 14:45 | 33.73499 | 33.94500 | 34633 ft | 407 kts | 239° |
| 2026-05-06 14:45 | 33.71854 | 33.91712 | 34879 ft | 407 kts | 239° |
| 2026-05-06 14:45 | 33.70222 | 33.88948 | 35051 ft | 408 kts | 239° |
| 2026-05-06 14:46 | 33.67069 | 33.83622 | 35069 ft | 406 kts | 239° |
| 2026-05-06 14:46 | 33.63831 | 33.78159 | 35068 ft | 406 kts | 239° |
| 2026-05-06 14:47 | 33.60556 | 33.72643 | 35067 ft | 406 kts | 239° |
| 2026-05-06 14:47 | 33.57360 | 33.67267 | 35068 ft | 406 kts | 239° |
| 2026-05-06 14:48 | 33.54102 | 33.61796 | 35066 ft | 406 kts | 239° |
| 2026-05-06 14:48 | 33.50815 | 33.56285 | 35061 ft | 406 kts | 239° |
| 2026-05-06 14:49 | 33.47553 | 33.50824 | 35064 ft | 406 kts | 239° |
| 2026-05-06 14:49 | 33.44274 | 33.45342 | 35068 ft | 406 kts | 239° |
| 2026-05-06 14:50 | 33.40984 | 33.39850 | 35069 ft | 407 kts | 239° |
| 2026-05-06 14:50 | 33.37676 | 33.34335 | 35068 ft | 407 kts | 239° |
| 2026-05-06 14:51 | 33.34434 | 33.28940 | 35071 ft | 407 kts | 239° |
| 2026-05-06 14:51 | 33.31224 | 33.23606 | 35064 ft | 407 kts | 239° |
| 2026-05-06 14:52 | 33.27905 | 33.18099 | 35065 ft | 407 kts | 239° |
| 2026-05-06 14:52 | 33.24623 | 33.12659 | 35064 ft | 408 kts | 239° |
| 2026-05-06 14:53 | 33.21308 | 33.07174 | 35066 ft | 408 kts | 239° |
| 2026-05-06 14:53 | 33.18008 | 33.01658 | 35067 ft | 408 kts | 240° |
| 2026-05-06 14:54 | 33.14775 | 32.96084 | 35065 ft | 408 kts | 240° |
| 2026-05-06 14:54 | 33.11536 | 32.90518 | 35066 ft | 409 kts | 240° |
| 2026-05-06 14:55 | 33.08274 | 32.84942 | 35066 ft | 410 kts | 240° |
| 2026-05-06 14:55 | 33.05025 | 32.79395 | 35063 ft | 410 kts | 240° |
| 2026-05-06 14:56 | 33.01758 | 32.73824 | 35066 ft | 411 kts | 240° |
| 2026-05-06 14:56 | 32.98489 | 32.68258 | 35065 ft | 412 kts | 240° |
| 2026-05-06 14:57 | 32.95202 | 32.62670 | 35065 ft | 412 kts | 240° |
| 2026-05-06 14:57 | 32.91893 | 32.57054 | 35080 ft | 413 kts | 240° |
| 2026-05-06 14:58 | 32.88607 | 32.51485 | 35078 ft | 414 kts | 240° |
| 2026-05-06 14:58 | 32.85305 | 32.45898 | 35074 ft | 414 kts | 240° |
| 2026-05-06 14:59 | 32.81981 | 32.40282 | 35073 ft | 415 kts | 240° |
| 2026-05-06 14:59 | 32.78824 | 32.34892 | 35075 ft | 415 kts | 241° |
| 2026-05-06 15:00 | 32.75559 | 32.29259 | 35077 ft | 415 kts | 241° |
| 2026-05-06 15:00 | 32.72266 | 32.23603 | 35076 ft | 416 kts | 240° |
| 2026-05-06 15:01 | 32.68965 | 32.17952 | 35077 ft | 417 kts | 240° |
| 2026-05-06 15:01 | 32.65844 | 32.12618 | 35080 ft | 417 kts | 240° |
| 2026-05-06 15:02 | 32.62530 | 32.06961 | 35079 ft | 418 kts | 240° |
| 2026-05-06 15:02 | 32.59222 | 32.01295 | 35083 ft | 418 kts | 240° |
| 2026-05-06 15:03 | 32.55915 | 31.95633 | 35082 ft | 418 kts | 240° |
| 2026-05-06 15:03 | 32.52589 | 31.89951 | 35081 ft | 418 kts | 240° |
| 2026-05-06 15:04 | 32.49273 | 31.84295 | 35080 ft | 419 kts | 240° |
| 2026-05-06 15:04 | 32.45978 | 31.78685 | 35086 ft | 419 kts | 240° |
| 2026-05-06 15:05 | 32.42662 | 31.73047 | 35083 ft | 419 kts | 240° |
| 2026-05-06 15:05 | 32.39326 | 31.67384 | 35082 ft | 419 kts | 240° |
| 2026-05-06 15:06 | 32.36142 | 31.61985 | 35083 ft | 420 kts | 240° |
| 2026-05-06 15:06 | 32.32802 | 31.56330 | 35083 ft | 420 kts | 240° |
| 2026-05-06 15:07 | 32.29457 | 31.50677 | 35086 ft | 420 kts | 239° |
| 2026-05-06 15:07 | 32.26228 | 31.45226 | 35083 ft | 420 kts | 239° |
| 2026-05-06 15:08 | 32.22878 | 31.39581 | 35087 ft | 420 kts | 239° |
| 2026-05-06 15:08 | 32.19520 | 31.33930 | 35087 ft | 420 kts | 239° |
| 2026-05-06 15:09 | 32.16159 | 31.28280 | 35085 ft | 420 kts | 239° |
| 2026-05-06 15:09 | 32.12802 | 31.22644 | 35085 ft | 420 kts | 239° |
| 2026-05-06 15:10 | 32.09445 | 31.17015 | 35083 ft | 420 kts | 239° |
| 2026-05-06 15:10 | 32.05474 | 31.11902 | 35081 ft | 431 kts | 222° |
| 2026-05-06 15:11 | 32.00156 | 31.08664 | 35084 ft | 445 kts | 202° |
| 2026-05-06 15:11 | 31.97116 | 31.07912 | 35080 ft | 453 kts | 191° |
| 2026-05-06 15:11 | 31.93922 | 31.07834 | 35076 ft | 461 kts | 180° |
| 2026-05-06 15:12 | 31.87510 | 31.08544 | 35083 ft | 462 kts | 180° |
| 2026-05-06 15:12 | 31.81150 | 31.09229 | 35087 ft | 462 kts | 180° |
| 2026-05-06 15:13 | 31.74733 | 31.09916 | 35090 ft | 462 kts | 180° |
| 2026-05-06 15:13 | 31.68349 | 31.10600 | 35093 ft | 462 kts | 180° |
| 2026-05-06 15:14 | 31.63231 | 31.11148 | 35096 ft | 462 kts | 180° |
| 2026-05-06 15:14 | 31.56766 | 31.11839 | 35091 ft | 462 kts | 180° |
| 2026-05-06 15:15 | 31.50337 | 31.12716 | 35096 ft | 465 kts | 176° |
| 2026-05-06 15:15 | 31.43974 | 31.13923 | 35088 ft | 465 kts | 176° |
| 2026-05-06 15:16 | 31.37586 | 31.15125 | 35091 ft | 465 kts | 176° |
| 2026-05-06 15:16 | 31.31415 | 31.16280 | 35090 ft | 464 kts | 176° |
| 2026-05-06 15:17 | 31.25061 | 31.17469 | 35079 ft | 464 kts | 176° |
| 2026-05-06 15:17 | 31.18688 | 31.18658 | 35074 ft | 463 kts | 176° |
| 2026-05-06 15:18 | 31.12384 | 31.19832 | 35078 ft | 463 kts | 176° |
| 2026-05-06 15:18 | 31.05981 | 31.21023 | 35071 ft | 463 kts | 176° |
| 2026-05-06 15:19 | 30.99646 | 31.22200 | 35065 ft | 463 kts | 176° |
| 2026-05-06 15:19 | 30.93277 | 31.23382 | 35062 ft | 462 kts | 176° |
| 2026-05-06 15:20 | 30.86941 | 31.24556 | 35052 ft | 462 kts | 177° |
| 2026-05-06 15:20 | 30.80552 | 31.25738 | 35048 ft | 462 kts | 177° |
| 2026-05-06 15:21 | 30.74239 | 31.26905 | 35045 ft | 462 kts | 177° |
| 2026-05-06 15:21 | 30.67896 | 31.28075 | 35045 ft | 462 kts | 177° |
| 2026-05-06 15:22 | 30.61528 | 31.29249 | 35047 ft | 463 kts | 177° |
| 2026-05-06 15:22 | 30.55176 | 31.30418 | 35049 ft | 463 kts | 177° |
| 2026-05-06 15:23 | 30.48823 | 31.31586 | 35047 ft | 463 kts | 177° |
| 2026-05-06 15:23 | 30.42475 | 31.32752 | 35045 ft | 463 kts | 177° |
| 2026-05-06 15:24 | 30.36138 | 31.33917 | 35046 ft | 463 kts | 177° |
| 2026-05-06 15:24 | 30.29899 | 31.35062 | 35045 ft | 463 kts | 177° |
| 2026-05-06 15:25 | 30.23967 | 31.36149 | 35048 ft | 463 kts | 177° |
| 2026-05-06 15:25 | 30.17606 | 31.37313 | 35059 ft | 462 kts | 177° |
| 2026-05-06 15:26 | 30.11273 | 31.38805 | 35050 ft | 470 kts | 167° |
| 2026-05-06 15:26 | 30.05341 | 31.42153 | 35048 ft | 483 kts | 150° |
| 2026-05-06 15:27 | 29.99929 | 31.46785 | 35048 ft | 484 kts | 148° |
| 2026-05-06 15:27 | 29.94538 | 31.51396 | 35049 ft | 484 kts | 148° |
| 2026-05-06 15:28 | 29.89114 | 31.56019 | 35056 ft | 484 kts | 148° |
| 2026-05-06 15:28 | 29.83696 | 31.60630 | 35058 ft | 484 kts | 148° |
| 2026-05-06 15:29 | 29.78316 | 31.65204 | 35065 ft | 484 kts | 148° |
| 2026-05-06 15:29 | 29.73012 | 31.69706 | 35066 ft | 484 kts | 148° |
| 2026-05-06 15:30 | 29.67595 | 31.74299 | 35071 ft | 483 kts | 148° |
| 2026-05-06 15:30 | 29.62244 | 31.78829 | 35066 ft | 483 kts | 148° |
| 2026-05-06 15:31 | 29.56875 | 31.83368 | 35066 ft | 482 kts | 148° |
| 2026-05-06 15:31 | 29.51475 | 31.87927 | 35062 ft | 482 kts | 148° |
| 2026-05-06 15:32 | 29.46073 | 31.92482 | 34924 ft | 479 kts | 148° |
| 2026-05-06 15:32 | 29.43468 | 31.94677 | 34475 ft | 479 kts | 149° |
| 2026-05-06 15:32 | 29.40769 | 31.96947 | 33847 ft | 479 kts | 148° |
| 2026-05-06 15:32 | 29.38085 | 31.99201 | 33087 ft | 479 kts | 148° |
| 2026-05-06 15:33 | 29.35402 | 32.01454 | 32327 ft | 480 kts | 148° |
| 2026-05-06 15:33 | 29.32755 | 32.03677 | 31545 ft | 481 kts | 148° |
| 2026-05-06 15:33 | 29.30093 | 32.05910 | 30811 ft | 482 kts | 148° |
| 2026-05-06 15:33 | 29.27713 | 32.07907 | 30183 ft | 481 kts | 148° |
| 2026-05-06 15:34 | 29.25053 | 32.10139 | 29548 ft | 477 kts | 148° |
| 2026-05-06 15:34 | 29.22385 | 32.12377 | 28941 ft | 471 kts | 148° |
| 2026-05-06 15:34 | 29.19774 | 32.14565 | 28349 ft | 466 kts | 148° |
| 2026-05-06 15:34 | 29.17146 | 32.16766 | 27750 ft | 462 kts | 148° |
| 2026-05-06 15:35 | 29.14626 | 32.18873 | 27172 ft | 458 kts | 148° |
| 2026-05-06 15:35 | 29.12026 | 32.21045 | 26602 ft | 453 kts | 148° |
| 2026-05-06 15:35 | 29.09497 | 32.23157 | 26040 ft | 448 kts | 148° |
| 2026-05-06 15:35 | 29.07089 | 32.25166 | 25513 ft | 445 kts | 147° |
| 2026-05-06 15:36 | 29.04615 | 32.27230 | 24973 ft | 441 kts | 147° |
| 2026-05-06 15:36 | 29.02318 | 32.29143 | 24472 ft | 437 kts | 147° |
| 2026-05-06 15:36 | 28.99772 | 32.31263 | 23935 ft | 433 kts | 147° |
| 2026-05-06 15:36 | 28.97371 | 32.33260 | 23411 ft | 429 kts | 147° |
| 2026-05-06 15:37 | 28.94981 | 32.35246 | 22810 ft | 425 kts | 147° |
| 2026-05-06 15:37 | 28.92596 | 32.37229 | 22232 ft | 421 kts | 147° |
| 2026-05-06 15:37 | 28.90226 | 32.39198 | 21658 ft | 417 kts | 147° |
| 2026-05-06 15:37 | 28.87924 | 32.41111 | 21133 ft | 413 kts | 147° |
| 2026-05-06 15:38 | 28.85601 | 32.43040 | 20603 ft | 410 kts | 147° |
| 2026-05-06 15:38 | 28.83318 | 32.44935 | 20020 ft | 406 kts | 147° |
| 2026-05-06 15:38 | 28.81041 | 32.46821 | 19497 ft | 402 kts | 147° |
| 2026-05-06 15:38 | 28.78796 | 32.48682 | 18981 ft | 399 kts | 146° |
| 2026-05-06 15:39 | 28.76531 | 32.50560 | 18454 ft | 396 kts | 146° |
| 2026-05-06 15:39 | 28.74335 | 32.52379 | 17914 ft | 393 kts | 146° |
| 2026-05-06 15:39 | 28.72120 | 32.54213 | 17324 ft | 390 kts | 146° |
| 2026-05-06 15:39 | 28.69960 | 32.56000 | 16779 ft | 387 kts | 146° |
| 2026-05-06 15:40 | 28.67786 | 32.57798 | 16233 ft | 384 kts | 146° |
| 2026-05-06 15:40 | 28.65607 | 32.59600 | 15695 ft | 381 kts | 146° |
| 2026-05-06 15:40 | 28.63487 | 32.61351 | 15237 ft | 376 kts | 146° |
| 2026-05-06 15:40 | 28.61405 | 32.63071 | 15071 ft | 375 kts | 146° |
| 2026-05-06 15:41 | 28.59326 | 32.64787 | 15030 ft | 378 kts | 146° |
| 2026-05-06 15:41 | 28.57204 | 32.66537 | 15012 ft | 378 kts | 146° |
| 2026-05-06 15:41 | 28.55058 | 32.68307 | 15020 ft | 379 kts | 147° |
| 2026-05-06 15:41 | 28.52917 | 32.70072 | 15019 ft | 378 kts | 147° |
| 2026-05-06 15:42 | 28.50783 | 32.71829 | 15001 ft | 379 kts | 147° |
| 2026-05-06 15:42 | 28.48640 | 32.73593 | 14996 ft | 379 kts | 147° |
| 2026-05-06 15:42 | 28.46526 | 32.75332 | 14996 ft | 379 kts | 147° |
| 2026-05-06 15:42 | 28.44369 | 32.77105 | 14985 ft | 379 kts | 147° |
| 2026-05-06 15:43 | 28.42268 | 32.78832 | 14991 ft | 379 kts | 147° |
| 2026-05-06 15:43 | 28.40124 | 32.80594 | 15000 ft | 379 kts | 147° |
| 2026-05-06 15:43 | 28.37965 | 32.82367 | 14988 ft | 378 kts | 147° |
| 2026-05-06 15:43 | 28.35836 | 32.84113 | 15001 ft | 379 kts | 147° |
| 2026-05-06 15:44 | 28.33706 | 32.85861 | 14856 ft | 377 kts | 147° |
| 2026-05-06 15:44 | 28.31569 | 32.87613 | 14513 ft | 375 kts | 147° |
| 2026-05-06 15:44 | 28.29464 | 32.89338 | 14051 ft | 373 kts | 147° |
| 2026-05-06 15:44 | 28.27575 | 32.90885 | 13586 ft | 371 kts | 147° |
| 2026-05-06 15:45 | 28.25482 | 32.92599 | 13071 ft | 367 kts | 147° |
| 2026-05-06 15:45 | 28.23429 | 32.94280 | 12514 ft | 365 kts | 147° |
| 2026-05-06 15:45 | 28.21385 | 32.95952 | 12040 ft | 362 kts | 147° |
| 2026-05-06 15:45 | 28.19352 | 32.97613 | 11530 ft | 359 kts | 146° |
| 2026-05-06 15:46 | 28.17313 | 32.99276 | 11034 ft | 357 kts | 146° |
| 2026-05-06 15:46 | 28.15315 | 33.00906 | 10533 ft | 355 kts | 147° |
| 2026-05-06 15:46 | 28.13337 | 33.02522 | 10323 ft | 343 kts | 146° |
| 2026-05-06 15:46 | 28.11803 | 33.03778 | 10220 ft | 333 kts | 146° |
| 2026-05-06 15:47 | 28.10112 | 33.05163 | 10104 ft | 321 kts | 147° |
| 2026-05-06 15:47 | 28.08355 | 33.06596 | 10017 ft | 307 kts | 147° |
| 2026-05-06 15:47 | 28.06642 | 33.07993 | 9999 ft | 295 kts | 147° |
| 2026-05-06 15:47 | 28.04951 | 33.09366 | 9990 ft | 307 kts | 147° |
| 2026-05-06 15:48 | 28.03204 | 33.10783 | 9997 ft | 310 kts | 147° |
| 2026-05-06 15:48 | 28.01472 | 33.12193 | 9996 ft | 307 kts | 147° |
| 2026-05-06 15:48 | 27.99734 | 33.13608 | 9990 ft | 306 kts | 147° |
| 2026-05-06 15:48 | 27.97990 | 33.15025 | 9993 ft | 307 kts | 147° |
| 2026-05-06 15:49 | 27.96264 | 33.16426 | 9994 ft | 308 kts | 147° |
| 2026-05-06 15:49 | 27.94537 | 33.17829 | 9994 ft | 308 kts | 147° |
| 2026-05-06 15:49 | 27.92786 | 33.19252 | 9993 ft | 307 kts | 147° |
| 2026-05-06 15:49 | 27.91121 | 33.20604 | 9990 ft | 308 kts | 147° |
| 2026-05-06 15:50 | 27.89367 | 33.22025 | 9991 ft | 308 kts | 147° |
| 2026-05-06 15:50 | 27.87646 | 33.23422 | 9984 ft | 307 kts | 147° |
| 2026-05-06 15:50 | 27.85896 | 33.24843 | 9984 ft | 308 kts | 147° |
| 2026-05-06 15:50 | 27.84165 | 33.26247 | 9985 ft | 308 kts | 147° |
| 2026-05-06 15:51 | 27.82507 | 33.27589 | 9985 ft | 308 kts | 147° |
| 2026-05-06 15:51 | 27.80772 | 33.28994 | 9985 ft | 308 kts | 147° |
| 2026-05-06 15:51 | 27.79024 | 33.30409 | 9979 ft | 307 kts | 147° |
| 2026-05-06 15:51 | 27.77300 | 33.31806 | 9981 ft | 307 kts | 147° |
| 2026-05-06 15:52 | 27.75575 | 33.33200 | 9977 ft | 307 kts | 147° |
| 2026-05-06 15:52 | 27.73827 | 33.34612 | 9980 ft | 308 kts | 147° |
| 2026-05-06 15:52 | 27.72092 | 33.36013 | 9979 ft | 307 kts | 147° |
| 2026-05-06 15:52 | 27.70366 | 33.37408 | 9984 ft | 307 kts | 147° |
| 2026-05-06 15:53 | 27.68621 | 33.38820 | 9978 ft | 307 kts | 147° |
| 2026-05-06 15:53 | 27.66890 | 33.40217 | 9975 ft | 307 kts | 147° |
| 2026-05-06 15:53 | 27.65143 | 33.41628 | 9974 ft | 308 kts | 147° |
| 2026-05-06 15:53 | 27.63411 | 33.43022 | 9976 ft | 308 kts | 147° |
| 2026-05-06 15:54 | 27.61661 | 33.44434 | 9978 ft | 307 kts | 147° |
| 2026-05-06 15:54 | 27.59937 | 33.45823 | 9987 ft | 307 kts | 147° |
| 2026-05-06 15:54 | 27.58186 | 33.47234 | 9982 ft | 307 kts | 147° |
| 2026-05-06 15:54 | 27.56452 | 33.48631 | 9968 ft | 308 kts | 147° |
| 2026-05-06 15:55 | 27.54695 | 33.50047 | 9976 ft | 307 kts | 147° |
| 2026-05-06 15:55 | 27.52961 | 33.51444 | 9972 ft | 307 kts | 147° |
| 2026-05-06 15:55 | 27.51174 | 33.52695 | 9984 ft | 305 kts | 156° |
| 2026-05-06 15:55 | 27.49232 | 33.53649 | 9972 ft | 304 kts | 160° |
| 2026-05-06 15:56 | 27.47279 | 33.54585 | 9898 ft | 302 kts | 160° |
| 2026-05-06 15:56 | 27.45349 | 33.55519 | 9593 ft | 300 kts | 160° |
| 2026-05-06 15:56 | 27.43440 | 33.56449 | 9206 ft | 300 kts | 159° |
| 2026-05-06 15:56 | 27.41521 | 33.57385 | 8802 ft | 299 kts | 160° |
| 2026-05-06 15:57 | 27.39616 | 33.58313 | 8386 ft | 298 kts | 160° |
| 2026-05-06 15:57 | 27.38361 | 33.58923 | 8138 ft | 297 kts | 160° |
| 2026-05-06 15:57 | 27.35843 | 33.60140 | 7613 ft | 294 kts | 162° |
| 2026-05-06 15:57 | 27.33897 | 33.60804 | 7234 ft | 291 kts | 169° |
| 2026-05-06 15:58 | 27.32595 | 33.61182 | 6994 ft | 290 kts | 169° |
| 2026-05-06 15:58 | 27.30660 | 33.61748 | 6605 ft | 288 kts | 168° |
| 2026-05-06 15:58 | 27.28735 | 33.62320 | 6226 ft | 288 kts | 169° |
| 2026-05-06 15:58 | 27.26783 | 33.62898 | 5798 ft | 288 kts | 168° |
| 2026-05-06 15:59 | 27.24945 | 33.63445 | 5381 ft | 289 kts | 168° |
| 2026-05-06 15:59 | 27.23014 | 33.64016 | 5068 ft | 285 kts | 168° |
| 2026-05-06 15:59 | 27.21108 | 33.64584 | 4964 ft | 279 kts | 168° |
| 2026-05-06 15:59 | 27.19215 | 33.65145 | 4957 ft | 287 kts | 168° |
| 2026-05-06 16:00 | 27.17269 | 33.65724 | 4916 ft | 287 kts | 168° |
| 2026-05-06 16:00 | 27.15354 | 33.66292 | 4619 ft | 288 kts | 168° |
| 2026-05-06 16:00 | 27.13401 | 33.66871 | 4267 ft | 287 kts | 168° |
| 2026-05-06 16:00 | 27.11488 | 33.67439 | 3880 ft | 287 kts | 168° |
| 2026-05-06 16:01 | 27.09568 | 33.68006 | 3470 ft | 287 kts | 167° |
| 2026-05-06 16:01 | 27.07633 | 33.68577 | 3216 ft | 280 kts | 167° |
| 2026-05-06 16:01 | 27.05802 | 33.69121 | 3103 ft | 269 kts | 167° |
| 2026-05-06 16:01 | 27.04034 | 33.69646 | 3007 ft | 256 kts | 166° |
| 2026-05-06 16:02 | 27.02377 | 33.70139 | 2962 ft | 235 kts | 166° |
| 2026-05-06 16:02 | 27.00762 | 33.70644 | 2961 ft | 251 kts | 159° |
| 2026-05-06 16:02 | 26.99392 | 33.71727 | 2958 ft | 233 kts | 124° |
| 2026-05-06 16:02 | 26.98798 | 33.73291 | 2958 ft | 205 kts | 88° |
| 2026-05-06 16:03 | 26.99092 | 33.74743 | 2973 ft | 192 kts | 52° |
| 2026-05-06 16:03 | 26.99745 | 33.76023 | 2955 ft | 185 kts | 58° |
| 2026-05-06 16:03 | 27.00249 | 33.77296 | 3000 ft | 172 kts | 59° |
| 2026-05-06 16:03 | 27.00717 | 33.78530 | 2966 ft | 172 kts | 59° |
| 2026-05-06 16:04 | 27.01180 | 33.79758 | 2961 ft | 170 kts | 59° |
| 2026-05-06 16:04 | 27.01654 | 33.80991 | 2962 ft | 172 kts | 59° |
| 2026-05-06 16:04 | 27.02124 | 33.82209 | 2965 ft | 172 kts | 59° |
| 2026-05-06 16:04 | 27.02800 | 33.83271 | 2965 ft | 163 kts | 30° |
| 2026-05-06 16:05 | 27.03790 | 33.83767 | 2950 ft | 154 kts | 5° |
| 2026-05-06 16:05 | 27.04846 | 33.83826 | 2681 ft | 153 kts | 355° |
| 2026-05-06 16:05 | 27.05915 | 33.83765 | 2136 ft | 156 kts | 349° |
| 2026-05-06 16:05 | 27.06973 | 33.83535 | 1711 ft | 155 kts | 344° |
| 2026-05-06 16:06 | 27.07982 | 33.83167 | 1379 ft | 149 kts | 339° |
| 2026-05-06 16:06 | 27.08943 | 33.82802 | 1106 ft | 141 kts | 342° |
| 2026-05-06 16:06 | 27.09873 | 33.82514 | 965 ft | 139 kts | 344° |
| 2026-05-06 16:06 | 27.10784 | 33.82269 | 927 ft | 129 kts | 347° |
| 2026-05-06 16:07 | 27.11603 | 33.82043 | 945 ft | 113 kts | 346° |
| 2026-05-06 16:07 | 27.12341 | 33.81816 | 855 ft | 110 kts | 345° |
| 2026-05-06 16:07 | 27.13091 | 33.81594 | 660 ft | 112 kts | 346° |
| 2026-05-06 16:07 | 27.13854 | 33.81423 | 556 ft | 111 kts | 344° |
| 2026-05-06 16:08 | 27.14599 | 33.81197 | 426 ft | 113 kts | 338° |
| 2026-05-06 16:08 | 27.15356 | 33.80938 | 274 ft | 114 kts | 342° |
| 2026-05-06 16:08 | 27.16082 | 33.80705 | 100 ft | 111 kts | 341° |
| 2026-05-06 16:08 | 27.16764 | 33.80480 | 47 ft | 85 kts | 346° |
| 2026-05-06 16:09 | 27.17139 | 33.80370 | 48 ft | 29 kts | 345° |
| 2026-05-06 16:09 | 27.17202 | 33.80351 | 46 ft | 16 kts | 346° |
| 2026-05-06 16:09 | 27.17328 | 33.80311 | 50 ft | 19 kts | 345° |
| 2026-05-06 16:09 | 27.17433 | 33.80287 | 50 ft | 11 kts | 19° |
| 2026-05-06 16:10 | 27.17470 | 33.80356 | 50 ft | 12 kts | 60° |
| 2026-05-06 16:10 | 27.17531 | 33.80367 | 50 ft | 9 kts | 347° |
| 2026-05-06 16:10 | 27.17607 | 33.80344 | 50 ft | 19 kts | 345° |
| 2026-05-06 16:10 | 27.17746 | 33.80303 | 52 ft | 20 kts | 347° |
| 2026-05-06 16:11 | 27.17831 | 33.80385 | 53 ft | 18 kts | 73° |
| 2026-05-06 16:11 | 27.17887 | 33.80501 | 54 ft | 16 kts | 13° |
| 2026-05-06 16:11 | 27.17934 | 33.80582 | 54 ft | 12 kts | 77° |
| 2026-05-06 16:11 | 27.17943 | 33.80622 | 56 ft | 0 kts | 75° |